createdAt,value
2022-09-27T00:02:06.432Z,8.98
2022-09-27T00:04:32.836Z,8.93
2022-09-27T00:07:00.126Z,8.94
2022-09-27T00:09:26.552Z,8.91
2022-09-27T00:11:52.863Z,8.94
2022-09-27T00:14:19.298Z,8.94
2022-09-27T00:16:45.700Z,8.96
2022-09-27T00:19:18.377Z,8.97
2022-09-27T00:21:46.369Z,8.98
2022-09-27T00:24:15.191Z,8.98
2022-09-27T00:26:41.867Z,8.96
2022-09-27T00:29:10.586Z,8.96
2022-09-27T00:31:38.168Z,8.95
2022-09-27T00:34:06.607Z,8.92
2022-09-27T00:36:34.214Z,8.88
2022-09-27T00:39:00.965Z,8.88
2022-09-27T00:41:33.688Z,8.86
2022-09-27T00:44:04.497Z,8.83
2022-09-27T00:46:44.571Z,8.80
2022-09-27T00:49:33.093Z,8.79
2022-09-27T00:52:05.823Z,8.78
2022-09-27T00:54:36.544Z,8.74
2022-09-27T00:57:04.927Z,8.71
2022-09-27T00:59:38.379Z,8.71
2022-09-27T01:02:07.217Z,8.69
2022-09-27T01:04:37.396Z,8.67
2022-09-27T01:07:03.840Z,8.64
2022-09-27T01:09:30.564Z,8.62
2022-09-27T01:12:21.697Z,8.56
2022-09-27T01:15:00.378Z,8.54
2022-09-27T01:18:05.486Z,8.51
2022-09-27T01:20:53.442Z,8.47
2022-09-27T01:23:39.366Z,8.42
2022-09-27T01:26:27.262Z,8.41
2022-09-27T01:29:15.831Z,8.36
2022-09-27T01:32:04.882Z,8.34
2022-09-27T01:35:08.461Z,8.31
2022-09-27T01:37:40.816Z,8.30
2022-09-27T01:40:21.764Z,8.29
2022-09-27T01:43:06.586Z,8.25
2022-09-27T01:45:58.625Z,8.22
2022-09-27T01:48:33.795Z,8.24
2022-09-27T01:51:09.398Z,8.25
2022-09-27T01:53:40.839Z,8.26
2022-09-27T01:56:16.703Z,8.27
2022-09-27T01:58:52.573Z,8.28
2022-09-27T02:01:22.722Z,8.25
2022-09-27T02:03:51.655Z,8.23
2022-09-27T02:06:24.542Z,8.22
2022-09-27T02:09:06.064Z,8.24
2022-09-27T02:11:35.813Z,8.23
2022-09-27T02:14:29.761Z,8.22
2022-09-27T02:17:17.639Z,8.19
2022-09-27T02:19:54.377Z,8.18
2022-09-27T02:22:56.492Z,8.17
2022-09-27T02:25:25.770Z,8.17
2022-09-27T02:28:07.063Z,8.14
2022-09-27T02:30:33.734Z,8.11
2022-09-27T02:33:00.182Z,8.09
2022-09-27T02:35:33.721Z,8.04
2022-09-27T02:38:01.029Z,8.03
2022-09-27T02:40:31.552Z,8.00
2022-09-27T02:42:58.658Z,7.97
2022-09-27T02:45:37.003Z,7.94
2022-09-27T02:48:30.607Z,7.91
2022-09-27T02:51:25.130Z,7.85
2022-09-27T02:54:12.337Z,7.83
2022-09-27T02:56:59.015Z,7.80
2022-09-27T02:59:50.061Z,7.78
2022-09-27T03:02:28.314Z,7.77
2022-09-27T03:05:00.892Z,7.76
2022-09-27T03:07:27.555Z,7.75
2022-09-27T03:09:54.823Z,7.74
2022-09-27T03:12:27.776Z,7.73
2022-09-27T03:15:00.158Z,7.72
2022-09-27T03:17:26.901Z,7.72
2022-09-27T03:19:53.308Z,7.75
2022-09-27T03:22:19.624Z,7.74
2022-09-27T03:24:46.024Z,7.74
2022-09-27T03:27:12.706Z,7.76
2022-09-27T03:29:39.021Z,7.78
2022-09-27T03:32:06.323Z,7.78
2022-09-27T03:34:32.707Z,7.79
2022-09-27T03:36:59.168Z,7.80
2022-09-27T03:39:25.541Z,7.82
2022-09-27T03:41:51.870Z,7.81
2022-09-27T03:44:18.185Z,7.81
2022-09-27T03:46:44.736Z,7.80
2022-09-27T03:49:11.089Z,7.80
2022-09-27T03:51:37.631Z,7.79
2022-09-27T03:54:04.159Z,7.79
2022-09-27T03:56:30.496Z,7.77
2022-09-27T03:58:56.805Z,7.76
2022-09-27T04:01:23.197Z,7.72
2022-09-27T04:03:49.898Z,7.70
2022-09-27T04:06:17.832Z,7.68
2022-09-27T04:08:44.644Z,7.63
2022-09-27T04:11:10.988Z,7.62
2022-09-27T04:13:37.346Z,7.61
2022-09-27T04:16:03.906Z,7.61
2022-09-27T04:18:30.281Z,7.63
2022-09-27T04:20:56.642Z,7.64
2022-09-27T04:23:29.065Z,7.65
2022-09-27T04:25:56.309Z,7.65
2022-09-27T04:28:23.363Z,7.62
2022-09-27T04:30:49.715Z,7.63
2022-09-27T04:33:16.172Z,7.63
2022-09-27T04:36:01.963Z,7.61
2022-09-27T04:38:28.342Z,7.57
2022-09-27T04:40:54.748Z,7.54
2022-09-27T04:43:21.144Z,7.53
2022-09-27T04:45:47.603Z,7.52
2022-09-27T04:48:13.975Z,7.51
2022-09-27T04:50:41.179Z,7.51
2022-09-27T04:53:07.497Z,7.51
2022-09-27T04:55:33.864Z,7.49
2022-09-27T04:58:01.544Z,7.49
2022-09-27T05:00:28.896Z,7.51
2022-09-27T05:02:55.254Z,7.50
2022-09-27T05:05:21.952Z,7.48
2022-09-27T05:07:48.267Z,7.49
2022-09-27T05:10:14.583Z,7.48
2022-09-27T05:12:40.887Z,7.50
2022-09-27T05:15:08.135Z,7.53
2022-09-27T05:17:34.478Z,7.56
2022-09-27T05:20:00.980Z,7.58
2022-09-27T05:22:27.327Z,7.59
2022-09-27T05:24:53.673Z,7.62
2022-09-27T05:27:20.401Z,7.65
2022-09-27T05:29:47.643Z,7.68
2022-09-27T05:32:14.956Z,7.72
2022-09-27T05:34:41.519Z,7.71
2022-09-27T05:37:07.873Z,7.69
2022-09-27T05:39:34.208Z,7.64
2022-09-27T05:42:00.574Z,7.66
2022-09-27T05:44:26.956Z,7.62
2022-09-27T05:46:53.295Z,7.62
2022-09-27T05:49:20.255Z,7.64
2022-09-27T05:51:47.553Z,7.68
2022-09-27T05:54:13.975Z,7.73
2022-09-27T05:56:40.365Z,7.78
2022-09-27T05:59:06.751Z,7.82
2022-09-27T06:01:33.641Z,7.86
2022-09-27T06:04:00.119Z,7.90
2022-09-27T06:06:26.448Z,7.94
2022-09-27T06:08:52.842Z,7.98
2022-09-27T06:11:19.207Z,8.02
2022-09-27T06:13:45.858Z,8.08
2022-09-27T06:16:12.707Z,8.18
2022-09-27T06:18:39.327Z,8.24
2022-09-27T06:21:06.713Z,8.25
2022-09-27T06:23:33.603Z,8.28
2022-09-27T06:26:05.654Z,8.27
2022-09-27T06:28:34.955Z,8.27
2022-09-27T06:31:01.621Z,8.27
2022-09-27T06:33:28.381Z,8.28
2022-09-27T06:35:54.959Z,8.29
2022-09-27T06:38:21.492Z,8.34
2022-09-27T06:40:48.056Z,8.35
2022-09-27T06:43:18.051Z,8.35
2022-09-27T06:45:44.483Z,8.39
2022-09-27T06:48:12.974Z,8.46
2022-09-27T06:50:41.494Z,8.53
2022-09-27T06:53:10.606Z,8.65
2022-09-27T06:55:37.387Z,8.75
2022-09-27T06:58:22.773Z,8.80
2022-09-27T07:00:53.579Z,8.79
2022-09-27T07:03:23.071Z,8.78
2022-09-27T07:05:57.307Z,8.74
2022-09-27T07:08:26.388Z,8.72
2022-09-27T07:10:53.551Z,8.69
2022-09-27T07:13:19.867Z,8.69
2022-09-27T07:15:46.315Z,8.71
2022-09-27T07:18:12.636Z,8.74
2022-09-27T07:20:39.744Z,8.82
2022-09-27T07:23:09.291Z,8.94
2022-09-27T07:25:35.927Z,9.05
2022-09-27T07:28:07.516Z,9.01
2022-09-27T07:30:34.904Z,9.01
2022-09-27T07:33:03.119Z,9.10
2022-09-27T07:35:29.723Z,9.16
2022-09-27T07:37:58.758Z,9.29
2022-09-27T07:40:26.519Z,9.39
2022-09-27T07:42:57.672Z,9.46
2022-09-27T07:45:25.157Z,9.37
2022-09-27T07:47:51.565Z,9.33
2022-09-27T07:50:18.035Z,9.26
2022-09-27T07:52:46.953Z,9.23
2022-09-27T07:55:14.887Z,9.22
2022-09-27T07:57:41.761Z,9.23
2022-09-27T08:00:14.972Z,9.20
2022-09-27T08:02:42.544Z,9.19
2022-09-27T08:05:10.027Z,9.23
2022-09-27T08:07:37.138Z,9.28
2022-09-27T08:10:03.860Z,9.34
2022-09-27T08:12:30.193Z,9.35
2022-09-27T08:14:58.514Z,9.39
2022-09-27T08:17:24.854Z,9.40
2022-09-27T08:19:51.191Z,9.47
2022-09-27T08:22:17.520Z,9.55
2022-09-27T08:24:43.941Z,9.62
2022-09-27T08:27:12.064Z,9.69
2022-09-27T08:29:41.730Z,9.76
2022-09-27T08:32:09.412Z,9.82
2022-09-27T08:34:35.772Z,9.92
2022-09-27T08:37:02.414Z,9.99
2022-09-27T08:39:28.772Z,10.08
2022-09-27T08:42:01.263Z,10.18
2022-09-27T08:45:11.920Z,10.20
2022-09-27T08:47:46.537Z,10.15
2022-09-27T08:50:29.159Z,10.07
2022-09-27T08:53:05.215Z,10.03
2022-09-27T08:55:41.795Z,9.95
2022-09-27T08:58:28.400Z,9.88
2022-09-27T09:00:58.102Z,9.89
2022-09-27T09:03:28.398Z,9.91
2022-09-27T09:06:11.446Z,9.95
2022-09-27T09:08:46.297Z,9.90
2022-09-27T09:11:53.136Z,9.77
2022-09-27T09:14:38.026Z,9.74
2022-09-27T09:17:54.067Z,9.86
2022-09-27T09:20:32.306Z,9.93
2022-09-27T09:23:17.033Z,9.95
2022-09-27T09:26:08.375Z,9.92
2022-09-27T09:28:34.676Z,9.92
2022-09-27T09:31:25.592Z,9.81
2022-09-27T09:34:15.586Z,9.81
2022-09-27T09:36:46.182Z,9.80
2022-09-27T09:39:18.836Z,9.81
2022-09-27T09:42:06.749Z,9.86
2022-09-27T09:44:56.348Z,9.84
2022-09-27T09:47:45.803Z,9.88
2022-09-27T09:50:26.840Z,9.89
2022-09-27T09:53:04.366Z,9.98
2022-09-27T09:55:34.792Z,10.00
2022-09-27T09:58:20.151Z,10.05
2022-09-27T10:00:48.185Z,10.02
2022-09-27T10:03:14.564Z,10.03
2022-09-27T10:05:44.444Z,10.07
2022-09-27T10:08:21.541Z,10.15
2022-09-27T10:10:48.300Z,10.23
2022-09-27T10:13:22.062Z,10.19
2022-09-27T10:16:05.585Z,10.31
2022-09-27T10:18:32.787Z,10.40
2022-09-27T10:21:03.126Z,10.44
2022-09-27T10:23:30.032Z,10.43
2022-09-27T10:25:59.675Z,10.31
2022-09-27T10:28:34.934Z,10.24
2022-09-27T10:31:04.515Z,10.23
2022-09-27T10:33:32.341Z,10.21
2022-09-27T10:36:00.453Z,10.25
2022-09-27T10:38:32.795Z,10.22
2022-09-27T10:41:21.781Z,10.28
2022-09-27T10:43:48.267Z,10.34
2022-09-27T10:46:19.252Z,10.44
2022-09-27T10:48:45.602Z,10.48
2022-09-27T10:51:38.514Z,10.56
2022-09-27T10:54:05.446Z,10.55
2022-09-27T10:56:34.577Z,10.76
2022-09-27T10:59:02.853Z,10.80
2022-09-27T11:01:45.392Z,10.87
2022-09-27T11:04:24.430Z,11.07
2022-09-27T11:06:51.156Z,10.99
2022-09-27T11:09:26.439Z,10.98
2022-09-27T11:12:13.446Z,10.85
2022-09-27T11:14:40.165Z,10.67
2022-09-27T11:17:16.056Z,10.65
2022-09-27T11:20:11.127Z,10.65
2022-09-27T11:23:11.458Z,10.62
2022-09-27T11:25:42.379Z,10.65
2022-09-27T11:28:39.422Z,10.67
2022-09-27T11:31:36.720Z,10.56
2022-09-27T11:34:31.637Z,10.53
2022-09-27T11:37:11.575Z,10.41
2022-09-27T11:39:46.875Z,10.33
2022-09-27T11:42:40.863Z,10.29
2022-09-27T11:45:45.294Z,10.42
2022-09-27T11:48:29.115Z,10.38
2022-09-27T11:51:14.058Z,10.37
2022-09-27T11:54:17.970Z,10.33
2022-09-27T11:56:58.085Z,10.31
2022-09-27T11:59:27.143Z,10.30
2022-09-27T12:01:59.850Z,10.25
2022-09-27T12:04:44.685Z,10.43
2022-09-27T12:07:26.225Z,10.40
2022-09-27T12:09:59.858Z,10.34
2022-09-27T12:12:31.395Z,10.29
2022-09-27T12:14:58.516Z,10.37
2022-09-27T12:17:50.936Z,10.35
2022-09-27T12:20:28.488Z,10.23
2022-09-27T12:23:00.927Z,10.04
2022-09-27T12:25:31.624Z,9.90
2022-09-27T12:28:05.327Z,9.66
2022-09-27T12:30:35.437Z,9.66
2022-09-27T12:33:11.133Z,9.62
2022-09-27T12:35:49.233Z,9.62
2022-09-27T12:38:21.304Z,9.61
2022-09-27T12:40:52.572Z,9.54
2022-09-27T12:43:24.039Z,9.54
2022-09-27T12:46:13.117Z,9.39
2022-09-27T12:48:51.662Z,9.34
2022-09-27T12:51:21.742Z,9.38
2022-09-27T12:54:08.960Z,9.33
2022-09-27T12:57:02.008Z,9.38
2022-09-27T12:59:34.284Z,9.39
2022-09-27T13:02:16.142Z,9.37
2022-09-27T13:05:04.272Z,9.39
2022-09-27T13:07:49.416Z,9.42
2022-09-27T13:10:30.884Z,9.47
2022-09-27T13:13:00.205Z,9.33
2022-09-27T13:15:31.544Z,9.33
2022-09-27T13:18:01.573Z,9.38
2022-09-27T13:20:30.673Z,9.46
2022-09-27T13:22:58.808Z,9.53
2022-09-27T13:25:55.518Z,9.57
2022-09-27T13:28:45.652Z,9.71
2022-09-27T13:31:15.984Z,9.84
2022-09-27T13:33:53.855Z,9.89
2022-09-27T13:36:30.693Z,10.12
2022-09-27T13:39:06.191Z,10.31
2022-09-27T13:41:44.552Z,10.44
2022-09-27T13:44:32.797Z,10.52
2022-09-27T13:47:11.375Z,10.60
2022-09-27T13:49:40.460Z,10.66
2022-09-27T13:52:20.565Z,11.13
2022-09-27T13:54:53.374Z,11.32
2022-09-27T13:57:47.487Z,11.41
2022-09-27T14:00:20.054Z,11.81
2022-09-27T14:03:07.687Z,12.07
2022-09-27T14:05:40.647Z,12.03
2022-09-27T14:08:20.155Z,12.33
2022-09-27T14:10:46.736Z,12.34
2022-09-27T14:13:20.200Z,12.34
2022-09-27T14:15:48.034Z,12.47
2022-09-27T14:18:17.061Z,12.40
2022-09-27T14:20:47.701Z,12.27
2022-09-27T14:23:26.035Z,12.17
2022-09-27T14:25:54.800Z,12.10
2022-09-27T14:28:27.318Z,12.07
2022-09-27T14:31:13.675Z,12.06
2022-09-27T14:33:40.086Z,11.99
2022-09-27T14:36:26.142Z,11.99
2022-09-27T14:38:52.700Z,11.81
2022-09-27T14:41:19.053Z,11.64
2022-09-27T14:43:50.454Z,11.53
2022-09-27T14:46:28.692Z,11.41
2022-09-27T14:48:55.872Z,11.37
2022-09-27T14:51:28.970Z,11.36
2022-09-27T14:53:58.835Z,11.38
2022-09-27T14:56:30.280Z,11.43
2022-09-27T14:59:09.198Z,11.49
2022-09-27T15:01:35.773Z,11.40
2022-09-27T15:04:08.308Z,11.33
2022-09-27T15:06:38.181Z,11.39
2022-09-27T15:09:06.925Z,11.38
2022-09-27T15:11:34.631Z,11.38
2022-09-27T15:14:03.243Z,11.17
2022-09-27T15:16:31.248Z,11.17
2022-09-27T15:19:16.095Z,11.17
2022-09-27T15:21:42.738Z,11.16
2022-09-27T15:24:36.689Z,11.23
2022-09-27T15:27:04.165Z,11.24
2022-09-27T15:29:30.736Z,11.22
2022-09-27T15:32:06.780Z,11.10
2022-09-27T15:34:35.351Z,11.03
2022-09-27T15:37:03.640Z,11.03
2022-09-27T15:39:33.700Z,10.97
2022-09-27T15:42:14.518Z,10.90
2022-09-27T15:44:49.502Z,10.78
2022-09-27T15:47:31.897Z,10.72
2022-09-27T15:49:59.396Z,10.78
2022-09-27T15:52:42.834Z,10.83
2022-09-27T15:55:16.835Z,10.72
2022-09-27T15:57:45.783Z,10.69
2022-09-27T16:00:17.762Z,10.67
2022-09-27T16:02:45.068Z,10.62
2022-09-27T16:05:12.813Z,10.68
2022-09-27T16:07:39.459Z,10.68
2022-09-27T16:10:17.902Z,10.63
2022-09-27T16:12:45.083Z,10.55
2022-09-27T16:15:13.122Z,10.56
2022-09-27T16:17:42.377Z,10.58
2022-09-27T16:20:18.548Z,10.57
2022-09-27T16:22:45.321Z,10.57
2022-09-27T16:25:12.233Z,10.57
2022-09-27T16:27:38.745Z,10.51
2022-09-27T16:30:05.723Z,10.50
2022-09-27T16:32:32.089Z,10.41
2022-09-27T16:34:58.428Z,10.25
2022-09-27T16:37:24.889Z,10.30
2022-09-27T16:39:51.235Z,10.25
2022-09-27T16:42:18.079Z,10.22
2022-09-27T16:44:44.389Z,10.18
2022-09-27T16:47:10.809Z,10.05
2022-09-27T16:49:55.823Z,10.04
2022-09-27T16:52:22.179Z,9.99
2022-09-27T16:54:48.480Z,10.00
2022-09-27T16:57:14.804Z,9.97
2022-09-27T16:59:41.134Z,9.96
2022-09-27T17:02:09.426Z,9.91
2022-09-27T17:04:35.816Z,9.92
2022-09-27T17:07:02.167Z,9.87
2022-09-27T17:09:28.475Z,9.86
2022-09-27T17:11:56.209Z,9.91
2022-09-27T17:14:22.644Z,9.91
2022-09-27T17:16:49.160Z,9.89
2022-09-27T17:19:16.766Z,9.85
2022-09-27T17:21:45.940Z,9.79
2022-09-27T17:24:12.703Z,9.76
2022-09-27T17:26:39.647Z,9.70
2022-09-27T17:29:06.429Z,9.61
2022-09-27T17:31:34.758Z,9.55
2022-09-27T17:34:02.476Z,9.46
2022-09-27T17:36:34.546Z,9.39
2022-09-27T17:39:01.425Z,9.37
2022-09-27T17:41:28.919Z,9.35
2022-09-27T17:43:58.762Z,9.26
2022-09-27T17:46:30.787Z,9.28
2022-09-27T17:49:16.388Z,9.23
2022-09-27T17:51:46.184Z,9.15
2022-09-27T17:54:12.974Z,9.17
2022-09-27T17:56:41.022Z,9.16
2022-09-27T17:59:09.407Z,9.12
2022-09-27T18:01:39.568Z,9.15
2022-09-27T18:04:11.419Z,9.11
2022-09-27T18:06:43.945Z,9.10
2022-09-27T18:09:12.363Z,9.10
2022-09-27T18:11:39.663Z,9.08
2022-09-27T18:14:06.502Z,9.00
2022-09-27T18:16:40.901Z,8.87
2022-09-27T18:19:10.021Z,8.83
2022-09-27T18:21:36.428Z,8.79
2022-09-27T18:24:06.576Z,8.78
2022-09-27T18:26:36.403Z,8.72
2022-09-27T18:29:07.805Z,8.66
2022-09-27T18:31:34.410Z,8.63
2022-09-27T18:34:02.821Z,8.57
2022-09-27T18:36:29.134Z,8.53
2022-09-27T18:39:01.055Z,8.53
2022-09-27T18:41:29.838Z,8.53
2022-09-27T18:43:58.903Z,8.50
2022-09-27T18:46:38.194Z,8.52
2022-09-27T18:49:06.947Z,8.44
2022-09-27T18:51:33.968Z,8.44
2022-09-27T18:54:03.028Z,8.42
2022-09-27T18:56:30.063Z,8.43
2022-09-27T18:58:57.387Z,8.43
2022-09-27T19:01:25.679Z,8.40
2022-09-27T19:03:52.656Z,8.42
2022-09-27T19:06:21.766Z,8.36
2022-09-27T19:08:53.667Z,8.37
2022-09-27T19:11:20.052Z,8.36
2022-09-27T19:13:51.726Z,8.38
2022-09-27T19:16:18.600Z,8.35
2022-09-27T19:18:45.021Z,8.37
2022-09-27T19:21:16.967Z,8.40
2022-09-27T19:23:43.763Z,8.42
2022-09-27T19:26:13.834Z,8.47
2022-09-27T19:28:43.393Z,8.47
2022-09-27T19:31:13.375Z,8.45
2022-09-27T19:33:40.090Z,8.41
2022-09-27T19:36:08.955Z,8.40
2022-09-27T19:38:36.834Z,8.44
2022-09-27T19:41:05.137Z,8.43
2022-09-27T19:43:31.695Z,8.41
2022-09-27T19:46:11.060Z,8.39
2022-09-27T19:48:38.314Z,8.38
2022-09-27T19:51:05.614Z,8.41
2022-09-27T19:53:33.584Z,8.44
2022-09-27T19:56:01.793Z,8.43
2022-09-27T19:58:30.204Z,8.41
2022-09-27T20:01:07.527Z,8.42
2022-09-27T20:03:36.108Z,8.40
2022-09-27T20:06:04.209Z,8.41
2022-09-27T20:08:31.036Z,8.41
2022-09-27T20:11:05.203Z,8.43
2022-09-27T20:13:33.674Z,8.44
2022-09-27T20:16:03.577Z,8.44
2022-09-27T20:18:29.989Z,8.43
2022-09-27T20:21:00.896Z,8.40
2022-09-27T20:23:28.026Z,8.43
2022-09-27T20:26:00.254Z,8.38
2022-09-27T20:28:27.669Z,8.35
2022-09-27T20:31:01.934Z,8.30
2022-09-27T20:33:49.456Z,8.31
2022-09-27T20:36:20.208Z,8.30
2022-09-27T20:38:51.560Z,8.30
2022-09-27T20:41:20.169Z,8.30
2022-09-27T20:43:47.436Z,8.25
2022-09-27T20:46:16.812Z,8.23
2022-09-27T20:48:43.449Z,8.25
2022-09-27T20:51:14.129Z,8.24
2022-09-27T20:53:45.034Z,8.22
2022-09-27T20:56:22.033Z,8.22
2022-09-27T20:58:50.017Z,8.20
2022-09-27T21:01:18.034Z,8.16
2022-09-27T21:03:45.021Z,8.10
2022-09-27T21:06:16.082Z,8.09
2022-09-27T21:08:42.892Z,8.07
2022-09-27T21:11:11.783Z,8.01
2022-09-27T21:13:39.487Z,8.00
2022-09-27T21:16:08.660Z,8.00
2022-09-27T21:18:35.292Z,8.00
2022-09-27T21:21:04.973Z,7.98
2022-09-27T21:23:33.019Z,7.99
2022-09-27T21:26:05.479Z,8.01
2022-09-27T21:28:43.363Z,8.03
2022-09-27T21:31:12.338Z,8.05
2022-09-27T21:33:39.820Z,8.03
2022-09-27T21:36:08.364Z,8.02
2022-09-27T21:38:35.241Z,8.04
2022-09-27T21:41:04.359Z,8.07
2022-09-27T21:43:33.092Z,8.07
2022-09-27T21:46:02.518Z,8.08
2022-09-27T21:48:29.736Z,8.08
2022-09-27T21:51:11.926Z,8.08
2022-09-27T21:53:41.228Z,8.06
2022-09-27T21:56:08.970Z,8.05
2022-09-27T21:58:37.953Z,8.03
2022-09-27T22:01:13.049Z,8.02
2022-09-27T22:03:42.627Z,7.97
2022-09-27T22:06:12.032Z,7.95
2022-09-27T22:08:38.824Z,7.93
2022-09-27T22:11:05.737Z,7.92
2022-09-27T22:13:32.436Z,7.91
2022-09-27T22:16:07.127Z,7.89
2022-09-27T22:18:35.271Z,7.86
2022-09-27T22:21:03.880Z,7.82
2022-09-27T22:23:30.212Z,7.74
2022-09-27T22:25:57.212Z,7.71
2022-09-27T22:28:24.316Z,7.73
2022-09-27T22:30:50.715Z,7.68
2022-09-27T22:33:17.040Z,7.65
2022-09-27T22:35:47.296Z,7.64
2022-09-27T22:38:13.970Z,7.59
2022-09-27T22:40:40.651Z,7.57
2022-09-27T22:43:07.468Z,7.56
2022-09-27T22:45:33.863Z,7.54
2022-09-27T22:48:00.356Z,7.47
2022-09-27T22:50:27.245Z,7.42
2022-09-27T22:52:53.598Z,7.39
2022-09-27T22:55:19.965Z,7.34
2022-09-27T22:57:46.375Z,7.29
2022-09-27T23:00:13.405Z,7.26
2022-09-27T23:02:40.020Z,7.25
2022-09-27T23:05:06.959Z,7.21
2022-09-27T23:07:33.255Z,7.18
2022-09-27T23:09:59.667Z,7.18
2022-09-27T23:12:25.976Z,7.17
2022-09-27T23:14:52.302Z,7.14
2022-09-27T23:17:20.305Z,7.11
2022-09-27T23:19:46.644Z,7.08
2022-09-27T23:22:13.035Z,7.04
2022-09-27T23:24:39.413Z,7.02
2022-09-27T23:27:23.960Z,6.99
2022-09-27T23:29:50.734Z,6.92
2022-09-27T23:32:17.032Z,6.85
2022-09-27T23:34:43.378Z,6.83
2022-09-27T23:37:09.823Z,6.81
2022-09-27T23:39:36.223Z,6.77
2022-09-27T23:42:03.164Z,6.76
2022-09-27T23:44:29.555Z,6.77
2022-09-27T23:47:00.140Z,6.76
2022-09-27T23:49:27.732Z,6.74
2022-09-27T23:51:55.312Z,6.72
2022-09-27T23:54:21.651Z,6.69
2022-09-27T23:56:48.090Z,6.65
2022-09-27T23:59:14.884Z,6.62
